Time;durP1;ratioP1;P1;durP2;ratioP2;P2;SDS_P1;SDS_P2;PMS_P1;PMS_P2;Temp;Humidity;BMP_temperature;BMP_pressure;BME280_temperature;BME280_humidity;BME280_pressure;Samples;Min_cycle;Max_cycle;Signal;HPM_P1;HPM_P2
2023/07/31 00:00:54;;;;;;;3.55;1.30;;;21.60;42.80;;;;;;5095855;28;20024;-65
2023/07/31 00:03:22;;;;;;;2.15;0.82;;;21.60;43.40;;;;;;5094911;28;20024;-65
2023/07/31 00:05:49;;;;;;;2.92;1.00;;;22.00;42.60;;;;;;5095613;28;20158;-64
2023/07/31 00:08:17;;;;;;;2.58;1.13;;;21.90;43.10;;;;;;5096356;28;20457;-65
2023/07/31 00:10:45;;;;;;;4.65;1.27;;;22.50;42.50;;;;;;5096828;28;20021;-68
2023/07/31 00:13:12;;;;;;;2.80;1.20;;;22.10;42.00;;;;;;5096087;28;20035;-68
2023/07/31 00:15:40;;;;;;;4.63;1.10;;;22.50;41.90;;;;;;5094864;28;20327;-66
2023/07/31 00:18:08;;;;;;;1.20;0.88;;;22.50;41.60;;;;;;5095370;28;20434;-64
2023/07/31 00:20:35;;;;;;;2.17;0.90;;;23.10;41.20;;;;;;5095159;28;20020;-66
2023/07/31 00:23:03;;;;;;;2.30;0.90;;;23.20;40.30;;;;;;5095452;28;20016;-66
2023/07/31 00:25:30;;;;;;;3.22;0.80;;;23.50;39.50;;;;;;5096537;28;20350;-68
2023/07/31 00:27:58;;;;;;;2.00;0.90;;;23.40;39.60;;;;;;5098337;28;20016;-68
2023/07/31 00:30:26;;;;;;;1.95;0.90;;;23.40;39.20;;;;;;5099854;28;20032;-67
2023/07/31 00:32:54;;;;;;;2.90;1.00;;;23.40;39.70;;;;;;5098485;28;20023;-69
2023/07/31 00:35:22;;;;;;;5.20;1.40;;;23.20;39.80;;;;;;5099474;28;20473;-68
2023/07/31 00:37:49;;;;;;;2.72;0.88;;;22.60;41.20;;;;;;5099151;28;20031;-68
2023/07/31 00:40:17;;;;;;;3.30;0.80;;;23.00;40.40;;;;;;5098063;28;20345;-68
2023/07/31 00:42:45;;;;;;;2.78;0.70;;;22.80;40.20;;;;;;5099294;28;20070;-65
2023/07/31 00:45:12;;;;;;;1.45;0.80;;;22.70;39.70;;;;;;5098179;28;20512;-65
2023/07/31 00:47:40;;;;;;;3.03;0.80;;;22.70;40.50;;;;;;5099689;28;20395;-69
2023/07/31 00:50:09;;;;;;;1.95;0.60;;;23.00;39.50;;;;;;5098221;28;20035;-69
2023/07/31 00:52:37;;;;;;;2.05;0.75;;;23.40;39.70;;;;;;5098839;28;20445;-66
2023/07/31 00:55:05;;;;;;;1.13;0.70;;;23.40;39.10;;;;;;5099800;28;20028;-67
2023/07/31 00:57:34;;;;;;;2.70;0.93;;;23.50;38.80;;;;;;5098472;28;20059;-68
2023/07/31 01:00:01;;;;;;;1.30;0.68;;;23.10;39.70;;;;;;5098350;28;20102;-66
2023/07/31 01:02:29;;;;;;;1.40;0.82;;;23.60;38.80;;;;;;5098749;28;20024;-64
2023/07/31 01:04:57;;;;;;;2.63;0.80;;;22.80;38.00;;;;;;5080882;28;20134;-68
2023/07/31 01:07:43;;;;;;;2.05;0.90;;;23.10;38.80;;;;;;5098454;28;20048;-68
2023/07/31 01:10:36;;;;;;;1.30;0.50;;;23.60;38.40;;;;;;5099100;28;20028;-65
2023/07/31 01:13:05;;;;;;;1.70;0.77;;;23.60;37.80;;;;;;5097529;28;20024;-65
2023/07/31 01:15:33;;;;;;;2.10;0.70;;;23.50;37.70;;;;;;5098542;28;20017;-66
2023/07/31 01:18:01;;;;;;;2.05;0.70;;;23.20;37.50;;;;;;5098648;28;20453;-69
2023/07/31 01:20:31;;;;;;;1.90;0.73;;;23.20;37.90;;;;;;5098426;28;20026;-69
2023/07/31 01:23:17;;;;;;;2.42;0.60;;;23.50;36.90;;;;;;5097397;28;20059;-66
2023/07/31 01:26:04;;;;;;;2.05;0.70;;;23.70;37.10;;;;;;5097425;28;20020;-66
2023/07/31 01:28:39;;;;;;;2.75;0.75;;;24.10;36.40;;;;;;5099417;28;20032;-69
2023/07/31 01:31:11;;;;;;;0.85;0.55;;;23.70;37.00;;;;;;5099462;28;20017;-69
2023/07/31 01:33:39;;;;;;;0.97;0.60;;;23.20;36.80;;;;;;5099271;28;20357;-69
2023/07/31 01:36:08;;;;;;;1.88;0.60;;;23.10;37.10;;;;;;5098589;28;20267;-68
2023/07/31 01:38:35;;;;;;;1.63;0.65;;;23.00;37.10;;;;;;5098527;28;20038;-69
2023/07/31 01:41:03;;;;;;;1.30;0.68;;;23.50;36.80;;;;;;5100082;28;20020;-66
2023/07/31 01:43:31;;;;;;;0.80;0.50;;;23.90;36.50;;;;;;5098498;28;20028;-68
2023/07/31 01:45:58;;;;;;;1.30;0.70;;;24.00;35.40;;;;;;5097834;28;20132;-68
2023/07/31 01:48:26;;;;;;;2.80;0.80;;;23.80;36.30;;;;;;5098191;28;20115;-68
2023/07/31 01:50:53;;;;;;;2.10;0.52;;;24.00;36.40;;;;;;5098141;28;20373;-66
2023/07/31 01:53:21;;;;;;;1.70;0.60;;;24.20;36.70;;;;;;5098337;28;20434;-67
2023/07/31 01:55:49;;;;;;;1.23;0.70;;;23.80;36.60;;;;;;5098525;28;20454;-65
2023/07/31 01:58:16;;;;;;;0.90;0.50;;;23.80;37.00;;;;;;5098775;28;20024;-66
2023/07/31 02:00:44;;;;;;;2.05;0.70;;;23.80;36.70;;;;;;5098154;28;20062;-69
2023/07/31 02:03:11;;;;;;;1.30;0.60;;;23.90;36.70;;;;;;5098997;28;20020;-69
2023/07/31 02:05:46;;;;;;;1.85;0.60;;;23.50;37.20;;;;;;5098412;28;20103;-69
2023/07/31 02:08:14;;;;;;;2.25;0.80;;;23.60;37.10;;;;;;5098269;28;20087;-69
2023/07/31 02:10:41;;;;;;;2.35;0.75;;;23.20;37.00;;;;;;5098541;28;20020;-69
2023/07/31 02:13:09;;;;;;;2.47;0.77;;;23.60;37.30;;;;;;5099269;28;20145;-69
2023/07/31 02:15:37;;;;;;;1.20;0.50;;;23.90;36.10;;;;;;5098238;28;20024;-70
2023/07/31 02:18:04;;;;;;;1.88;0.50;;;24.00;36.70;;;;;;5098989;28;20027;-70
2023/07/31 02:20:35;;;;;;;1.52;0.70;;;24.10;37.50;;;;;;5097292;28;20028;-69
2023/07/31 02:23:03;;;;;;;1.10;0.50;;;24.70;36.10;;;;;;5097287;28;20028;-68
2023/07/31 02:25:31;;;;;;;1.23;0.57;;;24.70;35.60;;;;;;5097387;28;20069;-68
2023/07/31 02:27:58;;;;;;;0.90;0.50;;;24.40;36.00;;;;;;5095973;28;20392;-68
2023/07/31 02:30:26;;;;;;;1.80;0.70;;;24.90;35.70;;;;;;5097529;28;20102;-68
2023/07/31 02:32:53;;;;;;;1.42;0.60;;;24.20;35.90;;;;;;5096318;28;20107;-69
2023/07/31 02:35:21;;;;;;;0.80;0.60;;;24.00;37.00;;;;;;5096188;28;20361;-69
2023/07/31 02:37:48;;;;;;;1.08;0.55;;;24.70;36.10;;;;;;5095549;28;20020;-69
2023/07/31 02:40:16;;;;;;;0.68;0.52;;;24.90;35.40;;;;;;5096867;28;20049;-69
2023/07/31 02:42:44;;;;;;;1.98;0.60;;;24.60;36.10;;;;;;5097074;28;20069;-69
2023/07/31 02:45:11;;;;;;;2.72;0.70;;;25.00;35.50;;;;;;5097633;28;20450;-69
2023/07/31 02:47:39;;;;;;;0.88;0.60;;;25.10;35.10;;;;;;5098320;28;20069;-68
2023/07/31 02:50:07;;;;;;;2.75;0.70;;;24.50;35.80;;;;;;5096047;28;20058;-69
2023/07/31 02:52:35;;;;;;;1.27;0.60;;;24.30;35.90;;;;;;5096976;28;20028;-69
2023/07/31 02:55:02;;;;;;;2.35;0.82;;;24.50;36.50;;;;;;5097160;28;20039;-69
2023/07/31 02:57:30;;;;;;;1.80;0.70;;;25.00;35.70;;;;;;5097828;28;20082;-69
2023/07/31 02:59:58;;;;;;;9.80;3.78;;;25.20;35.10;;;;;;5098430;28;20039;-69
2023/07/31 03:02:25;;;;;;;3.38;1.85;;;25.00;35.90;;;;;;5097127;28;20031;-65
2023/07/31 03:04:53;;;;;;;1.55;0.90;;;24.90;36.20;;;;;;5095870;28;20024;-65
2023/07/31 03:07:20;;;;;;;1.70;0.50;;;24.80;35.70;;;;;;5096315;28;20434;-64
2023/07/31 03:09:48;;;;;;;1.90;0.63;;;24.50;36.20;;;;;;5096149;28;20067;-68
2023/07/31 03:12:15;;;;;;;1.42;0.75;;;24.50;36.30;;;;;;5095327;28;20066;-65
2023/07/31 03:14:43;;;;;;;2.88;1.70;;;24.50;35.60;;;;;;5095345;28;20024;-65
2023/07/31 03:17:11;;;;;;;2.25;1.20;;;24.80;36.20;;;;;;5096057;28;20069;-65
2023/07/31 03:19:38;;;;;;;1.20;0.60;;;25.40;35.20;;;;;;5095066;28;20024;-64
2023/07/31 03:22:06;;;;;;;1.05;0.50;;;25.10;35.20;;;;;;5095775;28;20059;-64
2023/07/31 03:24:34;;;;;;;1.55;0.70;;;24.80;35.00;;;;;;5096795;28;20069;-64
2023/07/31 03:27:01;;;;;;;3.03;0.60;;;24.40;35.90;;;;;;5098164;28;20024;-64
2023/07/31 03:29:29;;;;;;;4.53;0.70;;;25.20;35.50;;;;;;5098169;28;20350;-64
2023/07/31 03:31:57;;;;;;;1.90;0.63;;;25.60;34.70;;;;;;5095800;28;20023;-64
2023/07/31 03:34:24;;;;;;;1.00;0.60;;;25.70;35.10;;;;;;5094735;28;20030;-64
2023/07/31 03:36:52;;;;;;;2.80;0.98;;;25.50;34.50;;;;;;5095607;28;20020;-63
2023/07/31 03:39:19;;;;;;;1.85;0.50;;;25.60;34.70;;;;;;5094683;28;20024;-63
2023/07/31 03:41:47;;;;;;;1.23;0.60;;;25.90;35.20;;;;;;5094480;28;20032;-64
2023/07/31 03:44:14;;;;;;;1.25;0.75;;;25.70;34.60;;;;;;5095564;28;20016;-64
2023/07/31 03:46:42;;;;;;;5.30;0.98;;;25.30;34.90;;;;;;5095391;28;20020;-65
2023/07/31 03:49:10;;;;;;;2.03;0.60;;;25.40;34.90;;;;;;5095475;28;20373;-65
2023/07/31 03:51:37;;;;;;;1.00;0.65;;;25.00;35.10;;;;;;5095362;28;20445;-65
2023/07/31 03:54:05;;;;;;;2.58;0.80;;;24.90;35.60;;;;;;5095399;28;20396;-69
2023/07/31 03:56:33;;;;;;;1.63;0.60;;;25.50;34.70;;;;;;5095386;28;20074;-68
2023/07/31 03:59:00;;;;;;;1.35;0.55;;;25.90;34.30;;;;;;5095296;28;20069;-68
2023/07/31 04:01:28;;;;;;;0.80;0.50;;;26.00;34.20;;;;;;5094236;28;20064;-68
2023/07/31 04:03:55;;;;;;;2.28;0.57;;;26.30;34.50;;;;;;5095393;28;20024;-69
2023/07/31 04:06:23;;;;;;;1.67;0.70;;;25.60;34.50;;;;;;5095839;28;20027;-65
2023/07/31 04:08:51;;;;;;;1.95;0.60;;;25.80;34.60;;;;;;5094130;28;20062;-65
2023/07/31 04:11:22;;;;;;;1.77;0.93;;;26.10;33.20;;;;;;5094335;28;20063;-69
2023/07/31 04:13:49;;;;;;;2.60;1.08;;;25.80;34.00;;;;;;5094285;28;20107;-67
2023/07/31 04:16:17;;;;;;;1.80;0.60;;;25.50;34.60;;;;;;5094807;28;20069;-65
2023/07/31 04:18:45;;;;;;;2.33;0.70;;;25.70;34.00;;;;;;5095039;28;20024;-63
2023/07/31 04:21:12;;;;;;;2.10;0.68;;;25.70;34.80;;;;;;5095131;28;20024;-67
2023/07/31 04:23:40;;;;;;;2.35;0.73;;;26.00;33.60;;;;;;5095333;28;20357;-68
2023/07/31 04:26:07;;;;;;;0.80;0.55;;;25.60;33.90;;;;;;5095736;28;20029;-67
2023/07/31 04:28:35;;;;;;;2.50;0.75;;;25.20;34.70;;;;;;5096538;28;20107;-68
2023/07/31 04:31:03;;;;;;;2.80;0.70;;;25.40;34.30;;;;;;5095484;28;20016;-68
2023/07/31 04:33:31;;;;;;;1.13;0.50;;;25.90;34.10;;;;;;5095444;28;20469;-68
2023/07/31 04:35:59;;;;;;;1.67;0.60;;;25.50;34.10;;;;;;5094801;28;20077;-67
2023/07/31 04:38:27;;;;;;;3.03;0.70;;;25.70;33.90;;;;;;5094616;28;20016;-60
2023/07/31 04:40:54;;;;;;;1.60;0.70;;;25.90;33.80;;;;;;5094808;28;20032;-60
2023/07/31 04:43:22;;;;;;;3.47;0.70;;;26.00;33.70;;;;;;5095182;28;20016;-63
2023/07/31 04:45:50;;;;;;;1.77;0.60;;;25.70;33.20;;;;;;5094259;28;20047;-59
2023/07/31 04:48:17;;;;;;;1.00;0.43;;;26.40;32.90;;;;;;5094830;28;20150;-62
2023/07/31 04:50:45;;;;;;;1.98;0.68;;;26.50;33.30;;;;;;5094705;28;20105;-60
2023/07/31 04:53:12;;;;;;;1.58;0.60;;;26.60;33.10;;;;;;5094862;28;20096;-61
2023/07/31 04:55:40;;;;;;;0.77;0.60;;;26.60;33.00;;;;;;5094992;28;20432;-59
2023/07/31 04:58:08;;;;;;;0.80;0.50;;;26.70;32.40;;;;;;5094001;28;20354;-59
2023/07/31 05:00:35;;;;;;;1.17;0.50;;;26.30;33.00;;;;;;5095707;28;20396;-60
2023/07/31 05:03:03;;;;;;;1.42;0.60;;;26.40;33.30;;;;;;5094333;28;20454;-60
2023/07/31 05:05:31;;;;;;;1.17;0.50;;;26.50;33.20;;;;;;5093629;28;20054;-62
2023/07/31 05:07:58;;;;;;;1.50;0.60;;;27.40;32.20;;;;;;5093561;28;20048;-62
2023/07/31 05:10:30;;;;;;;1.02;0.50;;;27.90;31.50;;;;;;5093488;28;20119;-60
2023/07/31 05:12:57;;;;;;;1.00;0.60;;;28.10;31.40;;;;;;5096623;28;20027;-59
2023/07/31 05:15:25;;;;;;;0.75;0.60;;;28.10;30.60;;;;;;5097848;28;20496;-59
2023/07/31 05:17:52;;;;;;;0.70;0.50;;;27.10;32.30;;;;;;5097368;28;20055;-59
2023/07/31 05:20:20;;;;;;;1.90;0.60;;;27.20;32.30;;;;;;5098390;28;20019;-59
2023/07/31 05:22:47;;;;;;;2.55;0.60;;;27.40;31.80;;;;;;5097270;28;20020;-60
2023/07/31 05:25:15;;;;;;;1.65;0.60;;;27.70;31.40;;;;;;5098942;28;20024;-60
2023/07/31 05:27:42;;;;;;;1.98;0.63;;;27.40;31.50;;;;;;5097892;28;20081;-61
2023/07/31 05:30:10;;;;;;;1.65;0.60;;;28.20;30.60;;;;;;5097692;28;20016;-63
2023/07/31 05:32:38;;;;;;;1.77;0.70;;;28.30;30.40;;;;;;5098133;28;20069;-62
2023/07/31 05:35:06;;;;;;;1.45;0.60;;;29.10;30.10;;;;;;5098096;28;20020;-62
2023/07/31 05:37:33;;;;;;;0.70;0.45;;;28.30;30.70;;;;;;5097650;28;20016;-63
2023/07/31 05:40:05;;;;;;;1.58;0.70;;;28.50;30.30;;;;;;5097462;28;20020;-58
2023/07/31 05:42:33;;;;;;;2.13;0.77;;;28.20;30.80;;;;;;5097247;28;20028;-61
2023/07/31 05:45:00;;;;;;;1.55;0.60;;;27.70;31.00;;;;;;5096898;28;20035;-60
2023/07/31 05:47:28;;;;;;;1.30;0.40;;;27.10;31.30;;;;;;5097039;28;20498;-61
2023/07/31 05:49:56;;;;;;;1.92;0.77;;;27.60;31.10;;;;;;5097674;28;20028;-61
2023/07/31 05:52:24;;;;;;;1.13;0.60;;;28.70;30.20;;;;;;5097122;28;20350;-62
2023/07/31 05:54:55;;;;;;;0.98;0.75;;;29.40;30.00;;;;;;5097095;28;20030;-64
2023/07/31 05:57:23;;;;;;;0.93;0.60;;;29.10;29.50;;;;;;5096412;28;20055;-62
2023/07/31 05:59:50;;;;;;;1.45;0.50;;;28.40;30.30;;;;;;5096664;28;20335;-63
2023/07/31 06:02:18;;;;;;;3.80;2.08;;;28.50;30.30;;;;;;5096955;28;20430;-63
2023/07/31 06:04:45;;;;;;;1.63;0.80;;;28.10;30.40;;;;;;5096402;28;20028;-61
2023/07/31 06:07:13;;;;;;;1.17;0.50;;;27.60;31.10;;;;;;5097335;28;20032;-61
2023/07/31 06:09:40;;;;;;;5.60;3.90;;;25.90;33.10;;;;;;5096361;28;20346;-60
2023/07/31 06:12:08;;;;;;;1.25;0.80;;;24.60;34.60;;;;;;5096317;28;20028;-58
2023/07/31 06:14:36;;;;;;;12.93;8.55;;;23.60;36.30;;;;;;5097347;28;20028;-59
2023/07/31 06:17:11;;;;;;;2.17;0.60;;;23.10;36.60;;;;;;5096483;28;20450;-64
2023/07/31 06:19:39;;;;;;;4.63;2.08;;;22.90;37.30;;;;;;5096906;28;20028;-58
2023/07/31 06:22:06;;;;;;;4.10;2.50;;;22.60;37.90;;;;;;5095695;28;20031;-59
2023/07/31 06:24:34;;;;;;;2.40;1.00;;;22.50;37.80;;;;;;5096552;28;20031;-61
2023/07/31 06:27:03;;;;;;;1.98;0.60;;;22.40;38.90;;;;;;5096622;28;20430;-62
2023/07/31 06:29:31;;;;;;;2.47;1.42;;;22.10;39.00;;;;;;5097627;28;20024;-60
2023/07/31 06:31:59;;;;;;;20.75;11.52;;;22.10;39.30;;;;;;5099269;28;20081;-63
2023/07/31 06:34:27;;;;;;;4.50;2.45;;;22.00;39.40;;;;;;5098368;28;20031;-63
2023/07/31 06:36:54;;;;;;;2.25;1.00;;;21.90;39.50;;;;;;5096657;28;20044;-65
2023/07/31 06:39:22;;;;;;;1.98;1.20;;;21.80;39.60;;;;;;5097941;28;20020;-63
2023/07/31 06:41:50;;;;;;;3.10;1.52;;;21.70;39.80;;;;;;5097276;28;20494;-64
2023/07/31 06:44:17;;;;;;;2.10;1.10;;;21.60;40.40;;;;;;5097168;28;20357;-63
2023/07/31 06:46:45;;;;;;;1.98;1.30;;;21.60;40.20;;;;;;5096783;28;20024;-63
2023/07/31 06:49:14;;;;;;;1.90;1.20;;;21.40;41.00;;;;;;5097031;28;20020;-64
2023/07/31 06:51:44;;;;;;;2.13;0.82;;;21.30;41.60;;;;;;5096683;28;20031;-63
2023/07/31 06:54:11;;;;;;;2.65;0.95;;;21.10;42.10;;;;;;5098169;28;20024;-64
2023/07/31 06:56:39;;;;;;;1.10;0.70;;;21.00;42.40;;;;;;5097363;28;20095;-63
2023/07/31 06:59:06;;;;;;;0.88;0.55;;;20.80;42.80;;;;;;5095176;28;20028;-64
2023/07/31 07:01:34;;;;;;;1.77;0.80;;;20.70;42.80;;;;;;5096233;28;20043;-63
2023/07/31 07:04:01;;;;;;;1.85;0.60;;;20.60;43.50;;;;;;5095468;28;20031;-59
2023/07/31 07:06:29;;;;;;;1.50;0.57;;;20.40;44.50;;;;;;5095947;28;20525;-59
2023/07/31 07:08:57;;;;;;;1.05;0.77;;;20.20;44.80;;;;;;5094725;28;20059;-60
2023/07/31 07:11:24;;;;;;;2.80;0.80;;;19.90;45.90;;;;;;5096694;28;20027;-59
2023/07/31 07:13:52;;;;;;;1.50;0.68;;;19.70;46.20;;;;;;5096447;28;20495;-62
2023/07/31 07:16:19;;;;;;;1.52;0.50;;;19.50;47.50;;;;;;5096487;28;20050;-60
2023/07/31 07:18:47;;;;;;;3.83;1.48;;;19.30;48.20;;;;;;5095138;28;20023;-61
2023/07/31 07:21:15;;;;;;;5.25;3.33;;;19.10;48.80;;;;;;5095269;28;20395;-63
2023/07/31 07:23:46;;;;;;;2.15;0.77;;;19.00;49.20;;;;;;5095941;28;20043;-63
2023/07/31 07:26:13;;;;;;;2.92;0.80;;;18.70;50.50;;;;;;5095098;28;20031;-64
2023/07/31 07:28:40;;;;;;;1.02;0.50;;;18.50;51.10;;;;;;5094083;28;20048;-65
2023/07/31 07:31:09;;;;;;;1.88;0.80;;;18.40;51.10;;;;;;5095517;28;20020;-64
2023/07/31 07:33:36;;;;;;;10.43;3.70;;;18.20;52.00;;;;;;5095723;28;20048;-63
2023/07/31 07:36:05;;;;;;;1.42;0.77;;;18.10;51.70;;;;;;5095235;28;20036;-64
2023/07/31 07:38:33;;;;;;;2.90;1.02;;;17.90;53.00;;;;;;5095616;28;20039;-64
2023/07/31 07:41:01;;;;;;;2.00;0.70;;;17.60;53.40;;;;;;5095527;28;20047;-64
2023/07/31 07:43:28;;;;;;;3.22;1.25;;;17.50;53.60;;;;;;5095492;28;20023;-64
2023/07/31 07:45:56;;;;;;;3.03;1.55;;;17.20;54.00;;;;;;5095527;28;20016;-64
2023/07/31 07:48:25;;;;;;;9.68;4.90;;;17.10;54.30;;;;;;5094402;28;20020;-64
2023/07/31 07:50:52;;;;;;;5.25;2.63;;;17.20;54.40;;;;;;5095543;28;20063;-60
2023/07/31 07:53:20;;;;;;;1.88;0.80;;;17.10;55.10;;;;;;5095456;28;20027;-59
2023/07/31 07:55:47;;;;;;;1.63;1.00;;;17.00;56.60;;;;;;5094171;28;20047;-61
2023/07/31 07:58:15;;;;;;;3.15;0.80;;;16.70;57.00;;;;;;5094202;28;20115;-60
2023/07/31 08:00:48;;;;;;;2.30;0.70;;;16.70;57.40;;;;;;5093903;28;20035;-60
2023/07/31 08:03:16;;;;;;;3.65;1.10;;;16.60;57.50;;;;;;5094016;28;20231;-63
2023/07/31 08:05:45;;;;;;;2.20;1.00;;;16.50;57.50;;;;;;5095165;28;20032;-63
2023/07/31 08:08:16;;;;;;;2.17;0.82;;;16.30;58.10;;;;;;5094898;28;20378;-64
2023/07/31 08:10:44;;;;;;;3.10;1.65;;;16.30;57.90;;;;;;5095008;28;20062;-63
2023/07/31 08:13:13;;;;;;;1.98;0.85;;;16.20;58.00;;;;;;5094973;28;20035;-63
2023/07/31 08:15:42;;;;;;;3.53;1.30;;;16.10;58.00;;;;;;5094105;28;20472;-63
2023/07/31 08:18:11;;;;;;;2.03;1.02;;;16.00;58.90;;;;;;5093847;28;20020;-65
2023/07/31 08:20:39;;;;;;;3.47;1.30;;;16.00;59.40;;;;;;5094246;28;20031;-65
2023/07/31 08:23:06;;;;;;;3.47;1.70;;;16.00;58.80;;;;;;5095135;28;20039;-64
2023/07/31 08:25:36;;;;;;;2.90;1.52;;;15.90;59.20;;;;;;5094517;28;20115;-62
2023/07/31 08:28:04;;;;;;;3.50;1.55;;;15.90;59.10;;;;;;5094810;28;20099;-63
2023/07/31 08:30:33;;;;;;;3.50;1.50;;;15.60;59.20;;;;;;5094946;28;20035;-63
2023/07/31 08:33:01;;;;;;;4.10;2.25;;;15.40;60.00;;;;;;5094968;28;20020;-64
2023/07/31 08:35:29;;;;;;;4.05;1.73;;;15.50;60.10;;;;;;5093888;28;20469;-63
2023/07/31 08:37:56;;;;;;;3.88;1.70;;;15.60;60.00;;;;;;5094730;28;20047;-59
2023/07/31 08:40:24;;;;;;;3.55;1.40;;;15.40;60.90;;;;;;5095140;28;20030;-59
2023/07/31 08:42:56;;;;;;;2.88;1.23;;;15.30;61.30;;;;;;5093933;28;20421;-59
2023/07/31 08:45:24;;;;;;;2.92;1.33;;;15.00;63.00;;;;;;5094274;28;20032;-59
2023/07/31 08:47:52;;;;;;;3.97;1.40;;;14.80;63.50;;;;;;5098840;28;20361;-60
2023/07/31 08:50:21;;;;;;;3.28;1.23;;;14.70;63.80;;;;;;5098896;28;20023;-60
2023/07/31 08:52:51;;;;;;;4.35;1.63;;;14.80;63.20;;;;;;5098841;28;20077;-60
2023/07/31 08:55:25;;;;;;;3.03;1.35;;;14.80;62.50;;;;;;5097913;28;20020;-60
2023/07/31 08:57:54;;;;;;;3.15;1.48;;;14.80;63.40;;;;;;5097898;28;20020;-60
2023/07/31 09:00:24;;;;;;;4.55;2.00;;;14.60;63.10;;;;;;5098898;28;20028;-60
2023/07/31 09:03:03;;;;;;;5.45;1.88;;;14.50;63.30;;;;;;5098712;28;20055;-61
2023/07/31 09:05:32;;;;;;;4.10;1.90;;;14.40;63.60;;;;;;5098749;28;20028;-64
2023/07/31 09:08:02;;;;;;;3.95;1.90;;;14.20;64.70;;;;;;5097395;28;20044;-64
2023/07/31 09:10:30;;;;;;;4.13;1.45;;;14.40;63.80;;;;;;5098508;28;20081;-64
2023/07/31 09:12:59;;;;;;;2.92;1.50;;;14.50;63.70;;;;;;5097414;28;20026;-63
2023/07/31 09:15:28;;;;;;;2.22;1.50;;;14.40;64.20;;;;;;5097620;28;20032;-63
2023/07/31 09:18:03;;;;;;;3.53;1.38;;;14.10;65.20;;;;;;5097226;28;20534;-64
2023/07/31 09:20:34;;;;;;;3.83;1.60;;;13.90;66.10;;;;;;5097284;28;20028;-63
2023/07/31 09:23:16;;;;;;;3.22;1.77;;;13.90;66.30;;;;;;5098267;28;20031;-64
2023/07/31 09:25:47;;;;;;;11.75;5.45;;;13.60;66.80;;;;;;5098314;28;20331;-63
2023/07/31 09:28:14;;;;;;;6.10;2.60;;;13.60;66.80;;;;;;5080452;28;20126;-63
2023/07/31 09:30:50;;;;;;;3.10;1.60;;;13.70;66.40;;;;;;5098038;28;20027;-63
2023/07/31 09:33:21;;;;;;;2.47;1.35;;;13.60;67.20;;;;;;5097232;28;20024;-63
2023/07/31 09:35:49;;;;;;;3.78;1.58;;;13.50;67.40;;;;;;5097932;28;20099;-64
2023/07/31 09:38:17;;;;;;;2.65;1.55;;;13.40;67.40;;;;;;5097855;28;20515;-62
2023/07/31 09:40:45;;;;;;;3.42;1.90;;;13.20;67.80;;;;;;5096900;28;20028;-63
2023/07/31 09:43:17;;;;;;;4.03;2.30;;;13.10;68.40;;;;;;5097869;28;20024;-62
2023/07/31 09:45:46;;;;;;;4.57;2.17;;;13.10;67.80;;;;;;5096855;28;20353;-62
2023/07/31 09:48:18;;;;;;;5.05;2.22;;;13.00;67.90;;;;;;5097792;28;20024;-60
2023/07/31 09:50:48;;;;;;;4.22;2.25;;;13.00;67.90;;;;;;5096834;28;20028;-61
2023/07/31 09:53:19;;;;;;;8.00;2.60;;;13.20;67.70;;;;;;5096723;28;20115;-60
2023/07/31 09:55:47;;;;;;;4.88;2.20;;;13.10;67.80;;;;;;5097593;28;20035;-61
2023/07/31 09:58:14;;;;;;;4.53;1.98;;;13.00;68.00;;;;;;5096735;28;20061;-60
2023/07/31 10:00:42;;;;;;;5.68;2.60;;;13.00;68.40;;;;;;5096482;28;20107;-60
2023/07/31 10:03:11;;;;;;;6.65;2.70;;;13.10;67.80;;;;;;5095881;28;20024;-59
2023/07/31 10:05:47;;;;;;;7.75;3.55;;;13.10;67.30;;;;;;5096396;28;20107;-60
2023/07/31 10:08:16;;;;;;;7.40;3.20;;;13.00;67.80;;;;;;5096263;28;20047;-67
2023/07/31 10:10:47;;;;;;;6.72;2.97;;;13.00;68.00;;;;;;5097183;28;20032;-63
2023/07/31 10:13:16;;;;;;;6.38;2.80;;;13.00;68.30;;;;;;5097806;28;20115;-60
2023/07/31 10:15:45;;;;;;;7.75;4.30;;;12.80;69.00;;;;;;5096260;28;20103;-64
2023/07/31 10:18:13;;;;;;;6.32;3.25;;;12.70;69.20;;;;;;5097329;28;20055;-60
2023/07/31 10:20:42;;;;;;;6.85;4.40;;;12.50;70.50;;;;;;5096260;28;20024;-61
2023/07/31 10:23:10;;;;;;;8.48;4.47;;;12.50;70.60;;;;;;5079526;28;20032;-64
2023/07/31 10:25:38;;;;;;;6.72;4.00;;;12.50;70.60;;;;;;5096517;28;20039;-63
2023/07/31 10:28:06;;;;;;;9.05;4.15;;;12.40;70.70;;;;;;5097111;28;20477;-63
2023/07/31 10:30:38;;;;;;;7.13;4.25;;;12.40;70.70;;;;;;5097144;28;20446;-61
2023/07/31 10:33:07;;;;;;;9.13;3.85;;;12.30;71.20;;;;;;5097148;28;20095;-65
2023/07/31 10:35:34;;;;;;;6.20;4.15;;;12.20;71.80;;;;;;5096960;28;20020;-64
2023/07/31 10:38:20;;;;;;;8.25;4.15;;;12.30;71.20;;;;;;5095770;28;20020;-60
2023/07/31 10:40:50;;;;;;;8.23;4.38;;;12.40;70.40;;;;;;5095998;28;20024;-61
2023/07/31 10:43:27;;;;;;;7.13;3.60;;;12.20;71.10;;;;;;5096565;28;20465;-62
2023/07/31 10:45:55;;;;;;;5.50;3.30;;;12.20;71.60;;;;;;5096732;28;20085;-63
2023/07/31 10:48:23;;;;;;;6.55;3.58;;;12.10;71.60;;;;;;5096683;28;20085;-60
2023/07/31 10:50:57;;;;;;;5.55;3.45;;;12.00;72.40;;;;;;5096664;28;20062;-60
2023/07/31 10:53:35;;;;;;;6.55;3.83;;;11.80;72.80;;;;;;5096673;28;20039;-63
2023/07/31 10:56:05;;;;;;;5.30;3.38;;;11.80;72.70;;;;;;5096533;28;20069;-63
2023/07/31 10:58:34;;;;;;;7.43;4.20;;;11.80;72.70;;;;;;5096435;28;20060;-63
2023/07/31 11:01:04;;;;;;;7.93;3.95;;;11.60;73.10;;;;;;5096427;28;20099;-63
2023/07/31 11:03:43;;;;;;;7.90;3.92;;;11.50;73.70;;;;;;5095500;28;20031;-63
2023/07/31 11:06:12;;;;;;;6.80;3.88;;;11.40;74.50;;;;;;5095381;28;20020;-63
2023/07/31 11:08:57;;;;;;;9.45;3.78;;;11.40;73.80;;;;;;5094606;28;20128;-63
2023/07/31 11:11:25;;;;;;;8.10;3.88;;;11.50;73.80;;;;;;5095106;28;20034;-64
2023/07/31 11:13:53;;;;;;;8.55;3.90;;;11.40;72.90;;;;;;5096176;28;20358;-63
2023/07/31 11:16:25;;;;;;;7.78;3.78;;;11.30;73.10;;;;;;5096157;28;20067;-61
2023/07/31 11:18:55;;;;;;;6.97;3.75;;;11.30;73.20;;;;;;5096234;28;20471;-64
2023/07/31 11:21:25;;;;;;;9.68;4.13;;;11.40;73.00;;;;;;5079193;28;20039;-63
2023/07/31 11:23:58;;;;;;;10.10;4.50;;;11.50;72.70;;;;;;5095965;28;20024;-64
2023/07/31 11:26:26;;;;;;;7.70;3.90;;;11.50;72.90;;;;;;5096022;28;20020;-64
2023/07/31 11:28:54;;;;;;;5.00;3.70;;;11.10;74.40;;;;;;5094933;28;20028;-64
2023/07/31 11:31:22;;;;;;;6.18;3.85;;;11.00;75.50;;;;;;5095943;28;20074;-64
2023/07/31 11:33:49;;;;;;;8.68;4.13;;;11.00;75.80;;;;;;5095824;28;20020;-64
2023/07/31 11:36:19;;;;;;;7.90;3.70;;;10.90;76.20;;;;;;5095886;28;20026;-63
2023/07/31 11:38:47;;;;;;;6.97;3.78;;;11.00;76.00;;;;;;5094848;28;20020;-63
2023/07/31 11:41:16;;;;;;;6.18;3.67;;;11.00;74.90;;;;;;5095848;28;20112;-63
2023/07/31 11:43:44;;;;;;;5.10;3.15;;;10.80;75.60;;;;;;5095731;28;20044;-63
2023/07/31 11:46:12;;;;;;;6.00;3.63;;;10.60;76.10;;;;;;5094738;28;20020;-64
2023/07/31 11:48:40;;;;;;;5.93;3.30;;;10.60;76.50;;;;;;5095522;28;20024;-61
2023/07/31 11:51:11;;;;;;;7.22;3.72;;;10.50;77.40;;;;;;5095771;28;20031;-60
2023/07/31 11:53:56;;;;;;;7.53;3.60;;;10.50;76.40;;;;;;5095695;28;20013;-60
2023/07/31 11:56:25;;;;;;;5.88;3.50;;;10.70;76.30;;;;;;5078864;28;20038;-61
2023/07/31 11:59:03;;;;;;;6.57;3.75;;;10.80;75.40;;;;;;5078010;28;20028;-64
2023/07/31 12:01:31;;;;;;;7.40;3.70;;;10.70;75.70;;;;;;5094455;28;20496;-63
2023/07/31 12:03:59;;;;;;;8.70;4.05;;;10.40;76.10;;;;;;5095464;28;20028;-64
2023/07/31 12:06:36;;;;;;;6.95;3.92;;;10.30;76.90;;;;;;5095371;28;20116;-63
2023/07/31 12:09:07;;;;;;;5.88;3.28;;;10.40;76.60;;;;;;5094242;28;20135;-63
2023/07/31 12:11:48;;;;;;;6.10;3.42;;;10.50;76.00;;;;;;5094440;28;20065;-63
2023/07/31 12:14:24;;;;;;;7.40;3.33;;;10.40;76.70;;;;;;5094287;28;20032;-63
2023/07/31 12:17:00;;;;;;;5.45;3.10;;;10.10;78.00;;;;;;5095137;28;20035;-64
2023/07/31 12:19:29;;;;;;;8.27;4.57;;;9.70;79.50;;;;;;5095170;28;20038;-63
2023/07/31 12:22:00;;;;;;;5.50;3.60;;;9.50;80.60;;;;;;5094933;28;20024;-64
2023/07/31 12:24:28;;;;;;;6.20;3.63;;;9.40;81.00;;;;;;5095257;28;20027;-63
2023/07/31 12:26:56;;;;;;;5.07;3.08;;;9.50;80.60;;;;;;5095165;28;20024;-65
2023/07/31 12:29:23;;;;;;;6.15;3.47;;;9.70;79.60;;;;;;5095486;28;20020;-64
2023/07/31 12:31:51;;;;;;;6.38;3.30;;;9.80;79.50;;;;;;5095407;28;20055;-60
2023/07/31 12:34:23;;;;;;;5.35;3.65;;;9.80;79.30;;;;;;5094222;28;20024;-60
2023/07/31 12:36:52;;;;;;;6.72;3.20;;;9.80;79.00;;;;;;5094261;28;20032;-64
2023/07/31 12:39:20;;;;;;;7.13;3.95;;;9.70;78.90;;;;;;5094442;28;20484;-63
2023/07/31 12:41:47;;;;;;;5.18;3.50;;;9.50;78.50;;;;;;5084512;28;20024;-61
2023/07/31 12:44:15;;;;;;;5.63;3.40;;;9.30;80.50;;;;;;5083441;28;20028;-63
2023/07/31 12:46:42;;;;;;;5.63;3.50;;;9.50;79.70;;;;;;5091955;28;20024;-63
2023/07/31 12:49:10;;;;;;;4.70;3.17;;;9.60;79.00;;;;;;5094299;28;20028;-60
2023/07/31 12:51:37;;;;;;;7.00;2.83;;;9.50;79.70;;;;;;5094337;28;20020;-60
2023/07/31 12:54:05;;;;;;;6.65;3.55;;;9.40;80.20;;;;;;5094083;28;20024;-61
2023/07/31 12:56:33;;;;;;;6.97;3.47;;;9.60;79.30;;;;;;5094559;28;20024;-65